This is the latest recevied weather packets stored in our database for station/object M0TJX-1. If no packets are shown the sender has not sent any weather packets the latest 10 day(s).
| Time | Temp. | Humidity | Pressure | Rain* | Wind** | Luminosity | Snow |
|---|---|---|---|---|---|---|---|
| 1777736600 | 15° C | 84% | 1013.1 hPa | 3.3 mm | - | - | - |
| 1777735700 | 16.11° C | 80% | 1013.3 hPa | 1.78 mm | - | - | - |
| 1777734800 | 17.22° C | 72% | 1013.2 hPa | 0.25 mm | - | - | - |
| 1777733900 | 17.22° C | 66% | 1013.1 hPa | 0 mm | - | - | - |
| 1777733000 | 17.22° C | 65% | 1013.2 hPa | 0 mm | - | - | - |
| 1777732100 | 17.22° C | 66% | 1013.5 hPa | 0 mm | - | - | - |
| 1777731200 | 17.78° C | 65% | 1013.8 hPa | 0 mm | - | - | - |
| 1777730300 | 18.33° C | 65% | 1014.1 hPa | 0 mm | - | - | - |
| 1777729400 | 18.33° C | 63% | 1014.1 hPa | 0 mm | - | - | - |
| 1777728500 | 18.89° C | 62% | 1014.4 hPa | 0 mm | - | - | - |
| 1777727600 | 18.89° C | 62% | 1014.6 hPa | 0 mm | - | - | - |
| 1777726700 | 18.89° C | 62% | 1014.8 hPa | 0 mm | - | - | - |
| 1777725800 | 18.33° C | 60% | 1014.9 hPa | 0 mm | - | - | - |
| 1777724900 | 18.33° C | 60% | 1015 hPa | 0 mm | - | - | - |
| 1777724000 | 18.89° C | 61% | 1015.5 hPa | 0 mm | - | - | - |
| 1777723100 | 18.89° C | 61% | 1015.4 hPa | 0 mm | - | - | - |
| 1777722200 | 18.89° C | 59% | 1015.6 hPa | 0 mm | - | - | - |
| 1777721300 | 18.33° C | 61% | 1016 hPa | 0 mm | - | - | - |
| 1777720400 | 17.78° C | 63% | 1016.2 hPa | 0 mm | - | - | - |
| 1777719500 | 17.78° C | 65% | 1016.3 hPa | 0 mm | - | - | - |
| 1777718600 | 17.22° C | 66% | 1016.5 hPa | 0 mm | - | - | - |
| 1777717700 | 17.22° C | 64% | 1016.7 hPa | 0 mm | - | - | - |
| 1777716800 | 17.78° C | 64% | 1016.7 hPa | 0 mm | - | - | - |
| 1777715900 | 17.22° C | 70% | 1017 hPa | 0 mm | - | - | - |
| 1777715000 | 17.22° C | 70% | 1017 hPa | 0 mm | - | - | - |
* Rain latest hour (hover to see other rain measurements)
** Current wind speed in m/s (hover to see current wind gust speed)